Mississagi — CFG8050 — position and weather

sailwx.info

Track history (hours):
 
Tides and Currents Weather Stations Pressure Air Temp Water Temp Dewpoint Dewpoint Depression Visibility Wind Speed Wind Dir Waves Ship Positions

Mississagi

Last reported at 2016-Dec-04 12:19 UTC. Time now 2016-Dec-10 18:35 UTC.
Position N 45°42' W 084°25'.

Length 189 m; draft 5.4 m.

Type: Cargo ship. MMSI: 316004940.

Date/timePositionNaut miles runAvg speedWind from/ knotsBaromVisibWave heightAir tempDewpointWater temp
2016-Dec-04 12:19N 45°42' W 084°25'810.9
2016-Dec-04 11:33N 45°46' W 084°36'1110.7
2016-Dec-04 10:33N 45°50' W 084°50'1111.0
2016-Dec-04 09:33N 45°51' W 085°06'1111.0
2016-Dec-04 08:32N 45°52' W 085°22'1010.8
2016-Dec-04 07:33N 45°54' W 085°37'4 0.4
2016-Dec-03 22:33N 45°55' W 085°42'1212.1
2016-Dec-03 21:33N 45°53' W 085°25'1212.3
2016-Dec-03 20:33N 45°51' W 085°08'1312.5
2016-Dec-03 19:33N 45°49' W 084°50'1212.2
2016-Dec-03 18:33N 45°51' W 084°32'  
2016-Nov-30 12:16N 42°27' W 080°11'912.1
2016-Nov-30 11:33N 42°31' W 080°00'1212.0
2016-Nov-30 10:33N 42°38' W 079°46'42 5.3
2016-Nov-30 02:33N 43°12' W 079°12'1 0.8
2016-Nov-30 01:33N 43°12' W 079°13'2 1.9
2016-Nov-30 00:33N 43°14' W 079°13'1 0.1
2016-Nov-29 15:33N 43°15' W 079°13'2 2.3
2016-Nov-29 14:33N 43°13' W 079°13'1 1.0
2016-Nov-29 13:25N 43°12' W 079°12'  
Track history (hours):
 
Tides and Currents Weather Stations Pressure Air Temp Water Temp Dewpoint Dewpoint Depression Visibility Wind Speed Wind Dir Waves Ship Positions

Mississagi

Last reported at 2016-Dec-04 12:19 UTC. Time now 2016-Dec-10 18:35 UTC.
Position N 45°42' W 084°25'.

Length 189 m; draft 5.4 m.

Type: Cargo ship. MMSI: 316004940.

Date/timePositionNaut miles runAvg speedWind from/ knotsBaromVisibWave heightAir tempDewpointWater temp
2016-Dec-04 12:19N 45°42' W 084°25'810.9
2016-Dec-04 11:33N 45°46' W 084°36'1110.7
2016-Dec-04 10:33N 45°50' W 084°50'1111.0
2016-Dec-04 09:33N 45°51' W 085°06'1111.0
2016-Dec-04 08:32N 45°52' W 085°22'1010.8
2016-Dec-04 07:33N 45°54' W 085°37'4 0.4
2016-Dec-03 22:33N 45°55' W 085°42'1212.1
2016-Dec-03 21:33N 45°53' W 085°25'1212.3
2016-Dec-03 20:33N 45°51' W 085°08'1312.5
2016-Dec-03 19:33N 45°49' W 084°50'1212.2
2016-Dec-03 18:33N 45°51' W 084°32'  
2016-Nov-30 12:16N 42°27' W 080°11'912.1
2016-Nov-30 11:33N 42°31' W 080°00'1212.0
2016-Nov-30 10:33N 42°38' W 079°46'42 5.3
2016-Nov-30 02:33N 43°12' W 079°12'1 0.8
2016-Nov-30 01:33N 43°12' W 079°13'2 1.9
2016-Nov-30 00:33N 43°14' W 079°13'1 0.1
2016-Nov-29 15:33N 43°15' W 079°13'2 2.3
2016-Nov-29 14:33N 43°13' W 079°13'1 1.0
2016-Nov-29 13:25N 43°12' W 079°12'  

Dump ship's entire track history